Time;durP1;ratioP1;P1;durP2;ratioP2;P2;SDS_P1;SDS_P2;PMS_P1;PMS_P2;Temp;Humidity;BMP_temperature;BMP_pressure;BME280_temperature;BME280_humidity;BME280_pressure;Samples;Min_cycle;Max_cycle;Signal;HPM_P1;HPM_P2
2022/01/19 00:00:09;;;;;;;;;;;;;;;4.68;100.00;102193.06;4994845;28;20015;-72
2022/01/19 00:02:53;;;;;;;;;;;;;;;4.59;100.00;102183.69;4993624;28;19982;-71
2022/01/19 00:05:37;;;;;;;;;;;;;;;4.50;100.00;102184.06;4993382;28;19976;-72
2022/01/19 00:08:21;;;;;;;;;;;;;;;4.46;100.00;102182.44;4994569;28;20428;-71
2022/01/19 00:11:05;;;;;;;;;;;;;;;4.42;100.00;102175.59;4993665;28;19944;-72
2022/01/19 00:13:49;;;;;;;;;;;;;;;4.37;100.00;102160.84;4993268;28;20436;-72
2022/01/19 00:16:33;;;;;;;;;;;;;;;4.25;100.00;102148.13;4993483;28;19969;-71
2022/01/19 00:19:17;;;;;;;;;;;;;;;4.19;100.00;102132.50;4994530;28;20396;-72
2022/01/19 00:22:01;;;;;;;;;;;;;;;4.13;100.00;102124.81;4994618;28;20026;-72
2022/01/19 00:24:45;;;;;;;;;;;;;;;4.01;100.00;102126.16;4994341;28;19928;-72
2022/01/19 00:27:29;;;;;;;;;;;;;;;3.90;100.00;102123.06;4994018;28;20364;-72
2022/01/19 00:30:13;;;;;;;;;;;;;;;3.92;100.00;102125.63;4993059;28;20354;-72
2022/01/19 00:32:56;;;;;;;;;;;;;;;3.93;100.00;102130.84;4993320;28;19924;-72
2022/01/19 00:35:41;;;;;;;;;;;;;;;3.83;100.00;102136.53;4992964;28;20062;-71
2022/01/19 00:38:24;;;;;;;;;;;;;;;3.77;100.00;102139.41;4993201;28;20016;-72
2022/01/19 00:41:10;;;;;;;;;;;;;;;3.68;100.00;102147.66;4978567;28;19941;-71
2022/01/19 00:43:53;;;;;;;;;;;;;;;3.61;100.00;102144.38;4992886;28;20016;-72
2022/01/19 00:46:37;;;;;;;;;;;;;;;3.41;100.00;102138.06;4994141;28;19925;-72
2022/01/19 00:49:21;;;;;;;;;;;;;;;3.29;100.00;102144.66;4992770;28;19944;-72
2022/01/19 00:52:05;;;;;;;;;;;;;;;3.25;100.00;102131.63;4994016;28;19941;-71
2022/01/19 00:54:49;;;;;;;;;;;;;;;3.19;100.00;102127.44;4992918;28;19941;-71
2022/01/19 00:57:33;;;;;;;;;;;;;;;3.11;100.00;102128.59;4979468;28;20325;-72
2022/01/19 01:00:18;;;;;;;;;;;;;;;3.05;100.00;102123.56;4992925;28;19976;-72
2022/01/19 01:03:04;;;;;;;;;;;;;;;2.98;100.00;102117.63;4992973;28;20348;-72
2022/01/19 01:05:48;;;;;;;;;;;;;;;2.79;100.00;102134.09;4992789;28;19924;-72
2022/01/19 01:08:32;;;;;;;;;;;;;;;2.61;100.00;102122.41;4992821;28;19933;-72
2022/01/19 01:11:17;;;;;;;;;;;;;;;2.62;100.00;102118.00;4993931;28;19985;-71
2022/01/19 01:17:10;;;;;;;;;;;;;;;2.39;100.00;102115.22;4992822;28;20039;-71
2022/01/19 01:19:54;;;;;;;;;;;;;;;2.38;100.00;102107.41;4992567;28;19941;-72
2022/01/19 01:22:38;;;;;;;;;;;;;;;2.30;100.00;102099.75;4992842;28;20273;-72
2022/01/19 01:25:23;;;;;;;;;;;;;;;2.15;100.00;102094.94;4993582;28;19928;-71
2022/01/19 01:28:07;;;;;;;;;;;;;;;2.10;100.00;102081.09;4979002;28;19929;-72
2022/01/19 01:30:51;;;;;;;;;;;;;;;2.07;100.00;102068.00;4992505;28;20010;-72
2022/01/19 01:33:39;;;;;;;;;;;;;;;1.87;100.00;102067.75;4992689;28;19988;-72
2022/01/19 01:36:22;;;;;;;;;;;;;;;1.79;100.00;102067.16;4993681;28;20030;-72
2022/01/19 01:39:06;;;;;;;;;;;;;;;1.75;100.00;102076.03;4992643;28;20424;-71
2022/01/19 01:41:50;;;;;;;;;;;;;;;1.71;100.00;102086.66;4993653;28;19965;-71
2022/01/19 01:44:35;;;;;;;;;;;;;;;1.73;100.00;102096.25;4992280;28;19968;-72
2022/01/19 01:47:20;;;;;;;;;;;;;;;1.63;100.00;102109.69;4992547;28;20308;-72
2022/01/19 01:55:50;;;;;;;;;;;;;;;1.32;100.00;102078.16;4996369;28;20285;-72
2022/01/19 01:58:35;;;;;;;;;;;;;;;1.33;100.00;102060.63;4997403;28;20329;-72
2022/01/19 02:01:19;;;;;;;;;;;;;;;1.28;100.00;102055.53;4996125;28;19972;-72
2022/01/19 02:04:03;;;;;;;;;;;;;;;1.34;100.00;102034.31;4997253;28;19924;-72
2022/01/19 02:07:42;;;;;;;;;;;;;;;1.38;100.00;102014.06;4995741;28;20388;-72
2022/01/19 02:09:54;;;;;;;;;;;;;;;1.40;100.00;101992.09;4993953;28;19929;-72
2022/01/19 02:15:58;;;;;;;;;;;;;;;1.36;100.00;101982.56;4995851;28;19924;-72
2022/01/19 02:22:05;;;;;;;;;;;;;;;1.41;100.00;101971.91;4947605;29;20314;-71
2022/01/19 02:24:49;;;;;;;;;;;;;;;1.39;100.00;101956.22;4955666;28;20424;-72
2022/01/19 02:52:12;;;;;;;;;;;;;;;1.51;100.00;101894.53;4947011;29;19929;-72
2022/01/19 02:54:57;;;;;;;;;;;;;;;1.56;100.00;101896.09;4941759;29;20023;-72
2022/01/19 02:57:42;;;;;;;;;;;;;;;1.62;100.00;101893.28;4985660;28;20336;-72
2022/01/19 03:09:34;;;;;;;;;;;;;;;1.78;100.00;101875.25;4994854;28;20289;-71
2022/01/19 03:12:18;;;;;;;;;;;;;;;1.80;100.00;101861.13;4995762;28;19976;-72
2022/01/19 03:15:02;;;;;;;;;;;;;;;1.83;100.00;101854.91;4980640;28;19929;-72
2022/01/19 03:17:47;;;;;;;;;;;;;;;1.81;100.00;101843.56;4994333;28;20028;-72
2022/01/19 03:20:30;;;;;;;;;;;;;;;1.80;100.00;101832.22;4994573;28;19925;-72
2022/01/19 03:23:20;;;;;;;;;;;;;;;1.82;100.00;101833.03;4994519;28;19941;-72
2022/01/19 03:26:06;;;;;;;;;;;;;;;1.76;100.00;101843.72;4995228;28;19943;-72
2022/01/19 03:28:50;;;;;;;;;;;;;;;1.73;100.00;101838.59;4995131;28;19929;-71
2022/01/19 03:31:33;;;;;;;;;;;;;;;1.75;100.00;101839.38;4994173;28;19972;-72
2022/01/19 03:34:17;;;;;;;;;;;;;;;1.70;100.00;101837.81;4995300;28;19972;-71
2022/01/19 03:37:02;;;;;;;;;;;;;;;1.70;100.00;101845.72;4995263;28;19925;-72
2022/01/19 03:39:46;;;;;;;;;;;;;;;1.69;100.00;101841.38;4993956;28;20033;-72
2022/01/19 03:42:30;;;;;;;;;;;;;;;1.66;100.00;101852.81;4995477;28;20008;-71
2022/01/19 03:45:14;;;;;;;;;;;;;;;1.36;100.00;101847.72;4993899;28;20027;-72
2022/01/19 03:50:50;;;;;;;;;;;;;;;1.12;100.00;101840.59;4995308;28;19925;-72
2022/01/19 03:53:34;;;;;;;;;;;;;;;1.05;100.00;101842.53;4980227;28;19924;-71
2022/01/19 03:56:18;;;;;;;;;;;;;;;0.97;100.00;101834.06;4994960;28;19949;-72
2022/01/19 03:59:02;;;;;;;;;;;;;;;0.88;100.00;101829.09;4994620;28;20392;-72
2022/01/19 04:01:46;;;;;;;;;;;;;;;0.86;100.00;101824.78;4993564;28;19924;-71
2022/01/19 04:07:15;;;;;;;;;;;;;;;0.82;100.00;101824.00;4993959;28;20388;-72
2022/01/19 04:09:59;;;;;;;;;;;;;;;0.73;100.00;101819.03;4993644;28;19983;-72
2022/01/19 04:13:08;;;;;;;;;;;;;;;0.70;100.00;101818.25;4993381;28;19988;-72
2022/01/19 04:15:52;;;;;;;;;;;;;;;0.63;100.00;101803.59;4982798;28;19984;-72
2022/01/19 04:18:36;;;;;;;;;;;;;;;0.59;100.00;101797.59;4994758;28;19968;-72
2022/01/19 04:21:19;;;;;;;;;;;;;;;0.50;100.00;101789.97;4979503;28;19925;-72
2022/01/19 04:24:03;;;;;;;;;;;;;;;0.42;100.00;101791.97;4994086;28;19924;-72
2022/01/19 04:29:56;;;;;;;;;;;;;;;0.34;100.00;101793.94;4993518;28;19984;-72
2022/01/19 04:33:04;;;;;;;;;;;;;;;0.32;100.00;101784.41;4993188;28;19924;-72
2022/01/19 04:35:54;;;;;;;;;;;;;;;0.21;100.00;101776.84;4993975;28;19980;-72
2022/01/19 04:48:04;;;;;;;;;;;;;;;-0.07;100.00;101775.88;4992981;28;20019;-72
2022/01/19 05:02:59;;;;;;;;;;;;;;;-0.25;100.00;101766.81;4993009;28;19925;-72
2022/01/19 05:05:54;;;;;;;;;;;;;;;-0.25;100.00;101769.44;4994131;28;20372;-72
2022/01/19 05:14:33;;;;;;;;;;;;;;;-0.55;100.00;101759.75;4992891;28;19968;-71
2022/01/19 05:17:17;;;;;;;;;;;;;;;-0.58;100.00;101770.28;4978866;28;19924;-72
2022/01/19 05:20:03;;;;;;;;;;;;;;;-0.53;100.00;101768.41;4993496;28;20033;-72
2022/01/19 05:22:46;;;;;;;;;;;;;;;-0.63;100.00;101764.31;4993507;28;20415;-72
2022/01/19 05:25:30;;;;;;;;;;;;;;;-0.59;100.00;101763.31;4992635;28;19924;-72
2022/01/19 05:28:14;;;;;;;;;;;;;;;-0.67;100.00;101766.13;4994000;28;19972;-70
2022/01/19 05:30:58;;;;;;;;;;;;;;;-0.75;100.00;101778.53;4982658;28;19980;-74
2022/01/19 05:33:42;;;;;;;;;;;;;;;-0.76;100.00;101778.59;4996434;28;19976;-72
2022/01/19 05:36:26;;;;;;;;;;;;;;;-0.75;100.00;101780.31;4982772;28;19924;-73
2022/01/19 05:39:10;;;;;;;;;;;;;;;-0.79;100.00;101787.38;4997665;28;19972;-72
2022/01/19 05:41:54;;;;;;;;;;;;;;;-0.77;100.00;101789.94;4996405;28;19996;-72
2022/01/19 05:44:38;;;;;;;;;;;;;;;-0.85;100.00;101778.81;4996032;28;19929;-71
2022/01/19 05:47:22;;;;;;;;;;;;;;;-0.87;100.00;101788.44;4996239;28;19925;-72
2022/01/19 05:50:05;;;;;;;;;;;;;;;-0.99;100.00;101784.38;4982536;28;19964;-71
2022/01/19 05:52:50;;;;;;;;;;;;;;;-1.04;100.00;101785.38;4996201;28;19972;-73
2022/01/19 05:55:34;;;;;;;;;;;;;;;-1.13;100.00;101775.13;4982309;28;20016;-73
2022/01/19 05:58:18;;;;;;;;;;;;;;;-1.17;100.00;101783.94;4996854;28;20072;-73
2022/01/19 06:01:02;;;;;;;;;;;;;;;-1.22;100.00;101785.78;4996907;28;20396;-74
2022/01/19 06:03:46;;;;;;;;;;;;;;;-1.19;100.00;101776.13;4982081;28;19971;-74
2022/01/19 06:06:32;;;;;;;;;;;;;;;-1.17;100.00;101778.72;4995785;28;20400;-74
2022/01/19 06:12:18;;;;;;;;;;;;;;;-1.27;100.00;101766.72;4996939;28;19940;-74
2022/01/19 06:15:02;;;;;;;;;;;;;;;-1.33;100.00;101772.97;4995691;28;19928;-74
2022/01/19 06:17:47;;;;;;;;;;;;;;;-1.40;100.00;101766.13;4995496;28;19972;-74
2022/01/19 06:20:30;;;;;;;;;;;;;;;-1.42;100.00;101761.81;4995541;28;19972;-74
2022/01/19 06:23:14;;;;;;;;;;;;;;;-1.42;100.00;101762.69;4996420;28;20010;-74
2022/01/19 06:25:59;;;;;;;;;;;;;;;-1.41;100.00;101763.53;4995417;28;19924;-74
2022/01/19 06:28:42;;;;;;;;;;;;;;;-1.47;100.00;101763.69;4995297;28;19932;-74
2022/01/19 06:31:26;;;;;;;;;;;;;;;-1.49;100.00;101762.84;4995511;28;19924;-74
2022/01/19 06:34:10;;;;;;;;;;;;;;;-1.50;100.00;101763.75;4995686;28;19991;-74
2022/01/19 06:36:54;;;;;;;;;;;;;;;-1.55;100.00;101769.06;4995337;28;19925;-73
2022/01/19 06:39:38;;;;;;;;;;;;;;;-1.53;100.00;101758.59;4994043;28;19925;-73
2022/01/19 06:42:22;;;;;;;;;;;;;;;-1.57;100.00;101762.16;4996035;28;20328;-73
2022/01/19 06:45:06;;;;;;;;;;;;;;;-1.58;100.00;101760.44;4995195;28;19968;-73
2022/01/19 06:47:51;;;;;;;;;;;;;;;-1.55;100.00;101757.75;4995099;28;20424;-73
2022/01/19 06:50:34;;;;;;;;;;;;;;;-1.60;100.00;101752.63;4994924;28;20392;-72
2022/01/19 06:53:20;;;;;;;;;;;;;;;-1.60;100.00;101746.53;4995041;28;19991;-73
2022/01/19 06:56:04;;;;;;;;;;;;;;;-1.57;100.00;101742.09;4996005;28;19924;-73
2022/01/19 06:58:48;;;;;;;;;;;;;;;-1.57;100.00;101756.94;4994834;28;19972;-73
2022/01/19 07:01:33;;;;;;;;;;;;;;;-1.54;100.00;101752.47;4995673;28;20033;-74
2022/01/19 07:04:18;;;;;;;;;;;;;;;-1.51;100.00;101751.56;4995584;28;19925;-73
2022/01/19 07:07:02;;;;;;;;;;;;;;;-1.43;100.00;101739.19;4995857;28;19983;-74
2022/01/19 07:09:46;;;;;;;;;;;;;;;-1.36;100.00;101740.78;4995484;28;19928;-74
2022/01/19 07:12:31;;;;;;;;;;;;;;;-1.36;100.00;101739.00;4994719;28;19924;-73
2022/01/19 07:15:15;;;;;;;;;;;;;;;-1.32;100.00;101745.03;4994392;28;19925;-73
2022/01/19 07:17:59;;;;;;;;;;;;;;;-1.28;100.00;101746.66;4994634;28;20408;-73
2022/01/19 07:20:43;;;;;;;;;;;;;;;-1.24;100.00;101748.34;4995583;28;20461;-73
2022/01/19 07:23:27;;;;;;;;;;;;;;;-1.25;100.00;101752.69;4994316;28;19925;-73
2022/01/19 07:26:11;;;;;;;;;;;;;;;-1.24;100.00;101740.50;4994220;28;19925;-73
2022/01/19 07:28:55;;;;;;;;;;;;;;;-1.16;100.00;101733.34;4995253;28;20285;-73
2022/01/19 07:31:39;;;;;;;;;;;;;;;-1.15;100.00;101740.28;4994105;28;19925;-73
2022/01/19 07:34:23;;;;;;;;;;;;;;;-1.20;100.00;101736.91;4980414;28;19926;-73
2022/01/19 07:37:07;;;;;;;;;;;;;;;-1.16;100.00;101733.34;4980473;28;19980;-73
2022/01/19 07:39:51;;;;;;;;;;;;;;;-1.15;100.00;101737.66;4994388;28;19965;-73
2022/01/19 07:42:35;;;;;;;;;;;;;;;-1.07;100.00;101735.75;4994822;28;19925;-73
2022/01/19 07:45:19;;;;;;;;;;;;;;;-1.05;100.00;101731.31;4979999;28;20076;-73
2022/01/19 07:48:03;;;;;;;;;;;;;;;-0.99;100.00;101731.16;4993746;28;19980;-73
2022/01/19 07:50:47;;;;;;;;;;;;;;;-0.99;100.00;101731.16;4993291;28;19971;-73
2022/01/19 07:53:30;;;;;;;;;;;;;;;-0.93;100.00;101731.03;4980127;28;19980;-73
2022/01/19 07:56:14;;;;;;;;;;;;;;;-0.86;100.00;101727.38;4993496;28;19929;-74
2022/01/19 07:58:58;;;;;;;;;;;;;;;-0.80;100.00;101732.44;4993791;28;19980;-73
2022/01/19 08:01:43;;;;;;;;;;;;;;;-0.74;100.00;101727.06;4993409;28;19929;-73
2022/01/19 08:04:26;;;;;;;;;;;;;;;-0.67;100.00;101736.44;4993437;28;19924;-73
2022/01/19 08:07:10;;;;;;;;;;;;;;;-0.61;100.00;101724.09;4979607;28;19925;-73
2022/01/19 08:09:54;;;;;;;;;;;;;;;-0.53;100.00;101722.09;4993366;28;20424;-74
2022/01/19 08:12:38;;;;;;;;;;;;;;;-0.44;100.00;101721.03;4994379;28;20501;-73
2022/01/19 08:15:22;;;;;;;;;;;;;;;-0.32;100.00;101723.31;4994304;28;19924;-73
2022/01/19 08:18:06;;;;;;;;;;;;;;;-0.26;100.00;101721.38;4993093;28;19925;-73
2022/01/19 08:20:50;;;;;;;;;;;;;;;-0.16;100.00;101722.84;4993339;28;19925;-73
2022/01/19 08:23:33;;;;;;;;;;;;;;;-0.08;100.00;101738.34;4994749;28;19980;-73
2022/01/19 08:26:17;;;;;;;;;;;;;;;-0.03;100.00;101732.09;4994298;28;19936;-73
2022/01/19 08:29:02;;;;;;;;;;;;;;;0.11;100.00;101722.94;4994201;28;19933;-73
2022/01/19 08:31:48;;;;;;;;;;;;;;;0.23;100.00;101729.59;4992605;28;20136;-73
2022/01/19 08:34:32;;;;;;;;;;;;;;;0.36;100.00;101731.81;4994162;28;20449;-73
2022/01/19 08:37:16;;;;;;;;;;;;;;;0.53;100.00;101726.91;4992987;28;19941;-73
2022/01/19 08:40:00;;;;;;;;;;;;;;;0.70;100.00;101729.00;4993160;28;20007;-73
2022/01/19 08:42:44;;;;;;;;;;;;;;;0.87;100.00;101724.09;4992856;28;19925;-74
2022/01/19 08:45:28;;;;;;;;;;;;;;;1.22;100.00;101719.44;4993071;28;19967;-73
2022/01/19 08:48:12;;;;;;;;;;;;;;;1.96;100.00;101720.31;4992902;28;20337;-74
2022/01/19 08:50:56;;;;;;;;;;;;;;;2.63;100.00;101719.50;4994334;28;19924;-73
2022/01/19 08:53:40;;;;;;;;;;;;;;;3.06;100.00;101709.81;4992836;28;19984;-74
2022/01/19 08:56:24;;;;;;;;;;;;;;;3.70;100.00;101711.50;4993162;28;20009;-74
2022/01/19 08:59:08;;;;;;;;;;;;;;;3.74;100.00;101715.69;4979099;28;19924;-74
2022/01/19 09:01:52;;;;;;;;;;;;;;;3.95;100.00;101714.75;4993385;28;19952;-74
2022/01/19 09:04:36;;;;;;;;;;;;;;;4.03;100.00;101711.75;4992525;28;19967;-73
2022/01/19 09:07:20;;;;;;;;;;;;;;;4.16;100.00;101711.16;4993868;28;19924;-74
2022/01/19 09:10:05;;;;;;;;;;;;;;;3.75;100.00;101712.13;4992598;28;19932;-73
2022/01/19 09:12:49;;;;;;;;;;;;;;;4.69;100.00;101695.47;4993769;28;20325;-74
2022/01/19 09:15:33;;;;;;;;;;;;;;;4.50;100.00;101689.34;4992698;28;20093;-73
2022/01/19 09:18:17;;;;;;;;;;;;;;;4.60;100.00;101678.28;4992454;28;19924;-73
2022/01/19 09:21:01;;;;;;;;;;;;;;;4.94;100.00;101687.13;4992685;28;20013;-74
2022/01/19 09:23:45;;;;;;;;;;;;;;;4.36;100.00;101689.16;4993503;28;20135;-73
2022/01/19 09:26:29;;;;;;;;;;;;;;;4.93;100.00;101688.06;4992684;28;19944;-74
2022/01/19 09:29:13;;;;;;;;;;;;;;;5.76;97.40;101686.47;4993742;28;20025;-73
2022/01/19 09:32:00;;;;;;;;;;;;;;;5.87;96.33;101684.16;4992356;28;19924;-74
2022/01/19 09:34:49;;;;;;;;;;;;;;;6.37;91.77;101687.59;4993441;28;19965;-74
2022/01/19 09:37:34;;;;;;;;;;;;;;;5.78;93.03;101685.47;4992686;28;19928;-74
2022/01/19 09:40:18;;;;;;;;;;;;;;;5.68;97.24;101678.94;4992406;28;20391;-74
2022/01/19 09:43:05;;;;;;;;;;;;;;;6.96;87.20;101675.38;4993630;28;19941;-73
2022/01/19 09:45:51;;;;;;;;;;;;;;;7.50;82.01;101677.47;4992138;28;19925;-71
2022/01/19 09:48:35;;;;;;;;;;;;;;;8.06;80.64;101667.75;4993784;28;19971;-73
2022/01/19 09:51:19;;;;;;;;;;;;;;;7.10;80.70;101650.72;4993538;28;19964;-70
2022/01/19 09:54:03;;;;;;;;;;;;;;;6.64;84.26;101655.13;4993195;28;19925;-72
2022/01/19 09:56:48;;;;;;;;;;;;;;;5.74;90.95;101649.50;4993713;28;19972;-73
2022/01/19 09:59:31;;;;;;;;;;;;;;;5.97;92.20;101643.88;4992454;28;20028;-72
2022/01/19 10:02:16;;;;;;;;;;;;;;;5.97;95.13;101633.28;4993427;28;19940;-69
2022/01/19 10:05:07;;;;;;;;;;;;;;;5.93;96.96;101633.56;4992450;28;19925;-71
2022/01/19 10:07:51;;;;;;;;;;;;;;;5.61;94.32;101640.50;4993024;28;19925;-71
2022/01/19 10:10:35;;;;;;;;;;;;;;;6.59;88.85;101633.34;4992370;28;19924;-70
2022/01/19 10:19:37;;;;;;;;;;;;;;;7.83;75.07;101619.72;4995998;28;20399;-69
2022/01/19 10:22:23;;;;;;;;;;;;;;;8.47;73.61;101609.41;4995488;28;19933;-72
2022/01/19 10:25:07;;;;;;;;;;;;;;;7.03;77.43;101607.81;4995818;28;19949;-69
2022/01/19 10:27:51;;;;;;;;;;;;;;;7.97;76.12;101603.75;4995289;28;19924;-72
2022/01/19 10:30:35;;;;;;;;;;;;;;;9.47;69.97;101609.72;4995586;28;20341;-70
2022/01/19 10:33:21;;;;;;;;;;;;;;;8.22;67.92;101599.50;4995527;28;19972;-69
2022/01/19 10:36:05;;;;;;;;;;;;;;;8.71;72.37;101597.19;4995494;28;19924;-69
2022/01/19 10:38:55;;;;;;;;;;;;;;;9.52;66.27;101591.63;4995460;28;20030;-70
2022/01/19 10:41:58;;;;;;;;;;;;;;;9.56;60.63;101593.13;4996253;28;19976;-69
2022/01/19 10:44:43;;;;;;;;;;;;;;;10.57;59.53;101591.03;4995136;28;19933;-70
2022/01/19 10:47:45;;;;;;;;;;;;;;;9.06;64.10;101587.72;4995706;28;19924;-70
2022/01/19 10:50:31;;;;;;;;;;;;;;;7.48;71.44;101602.41;4996306;28;19929;-72
2022/01/19 10:53:16;;;;;;;;;;;;;;;7.85;73.17;101583.28;4996239;28;20411;-72
2022/01/19 10:56:01;;;;;;;;;;;;;;;8.04;71.93;101579.38;4996190;28;20329;-70
2022/01/19 10:58:53;;;;;;;;;;;;;;;8.41;69.84;101584.09;4981404;28;19928;-72
2022/01/19 11:01:53;;;;;;;;;;;;;;;7.97;69.65;101593.13;4996174;28;19924;-72
2022/01/19 11:04:38;;;;;;;;;;;;;;;9.08;65.75;101588.47;4981202;28;20344;-70
2022/01/19 11:07:22;;;;;;;;;;;;;;;8.50;65.47;101591.47;4981300;28;19925;-69
2022/01/19 11:10:30;;;;;;;;;;;;;;;5.97;78.85;101598.88;4981301;28;20428;-72
2022/01/19 11:13:14;;;;;;;;;;;;;;;5.97;78.85;101598.88;4994881;28;19971;-71
2022/01/19 11:15:58;;;;;;;;;;;;;;;5.22;94.01;101594.13;4994842;28;19972;-71
2022/01/19 11:18:44;;;;;;;;;;;;;;;4.65;98.47;101585.59;4994842;28;20424;-71
2022/01/19 11:21:27;;;;;;;;;;;;;;;4.65;98.47;101585.59;4995531;28;19968;-71
2022/01/19 11:24:14;;;;;;;;;;;;;;;4.50;100.00;101581.94;4994557;28;19948;-72
2022/01/19 11:26:58;;;;;;;;;;;;;;;4.78;100.00;101570.88;4980117;28;19955;-72
2022/01/19 11:29:42;;;;;;;;;;;;;;;4.40;100.00;101575.41;4994180;28;20008;-71
2022/01/19 11:32:26;;;;;;;;;;;;;;;4.43;100.00;101562.03;4994544;28;19925;-71
2022/01/19 11:35:30;;;;;;;;;;;;;;;4.45;100.00;101562.81;4994156;28;19924;-71
2022/01/19 11:38:34;;;;;;;;;;;;;;;4.31;100.00;101548.56;4995622;28;19945;-71
2022/01/19 11:41:18;;;;;;;;;;;;;;;4.23;100.00;101537.50;4995109;28;19924;-71
2022/01/19 11:44:03;;;;;;;;;;;;;;;4.39;100.00;101533.22;4995019;28;20938;-72
2022/01/19 11:46:48;;;;;;;;;;;;;;;4.05;100.00;101533.97;4994331;28;19929;-71
2022/01/19 11:49:44;;;;;;;;;;;;;;;4.23;100.00;101538.38;4980345;28;19928;-71
2022/01/19 11:52:38;;;;;;;;;;;;;;;4.38;100.00;101534.16;4994865;28;19980;-71
2022/01/19 11:55:23;;;;;;;;;;;;;;;4.30;100.00;101528.38;4995381;28;20258;-71
2022/01/19 11:58:12;;;;;;;;;;;;;;;4.23;100.00;101524.31;4980156;28;19976;-71
2022/01/19 12:00:56;;;;;;;;;;;;;;;4.22;100.00;101523.47;4993695;28;19984;-71
2022/01/19 12:03:41;;;;;;;;;;;;;;;4.47;100.00;101515.22;4994668;28;19972;-71
2022/01/19 12:06:32;;;;;;;;;;;;;;;4.60;100.00;101517.19;4993890;28;19925;-71
2022/01/19 12:09:15;;;;;;;;;;;;;;;4.66;100.00;101510.72;4993482;28;20406;-72
2022/01/19 12:12:12;;;;;;;;;;;;;;;4.55;100.00;101513.91;4993830;28;19972;-71
2022/01/19 12:14:56;;;;;;;;;;;;;;;4.56;100.00;101512.13;4993524;28;19945;-71
2022/01/19 12:17:56;;;;;;;;;;;;;;;4.62;100.00;101502.09;4979828;28;19972;-70
2022/01/19 12:20:50;;;;;;;;;;;;;;;4.56;100.00;101512.13;4994353;28;20278;-71
2022/01/19 12:23:35;;;;;;;;;;;;;;;4.52;100.00;101510.53;4979871;28;19971;-71
2022/01/19 12:26:19;;;;;;;;;;;;;;;4.59;100.00;101501.41;4994456;28;19980;-72
2022/01/19 12:29:03;;;;;;;;;;;;;;;4.64;100.00;101499.38;4993151;28;20288;-71
2022/01/19 12:31:47;;;;;;;;;;;;;;;4.77;100.00;101495.19;4994503;28;19925;-71
2022/01/19 12:34:58;;;;;;;;;;;;;;;4.77;100.00;101490.75;4979269;28;19976;-72
2022/01/19 12:37:54;;;;;;;;;;;;;;;4.82;100.00;101494.03;4994607;28;20052;-72
2022/01/19 12:40:40;;;;;;;;;;;;;;;4.84;100.00;101483.34;4994590;28;19941;-72
2022/01/19 12:43:34;;;;;;;;;;;;;;;4.93;100.00;101481.94;4979330;28;19979;-72
2022/01/19 12:46:18;;;;;;;;;;;;;;;4.94;100.00;101477.53;4993323;28;20017;-71
2022/01/19 12:49:02;;;;;;;;;;;;;;;4.90;100.00;101481.25;4992890;28;19932;-72
2022/01/19 12:51:46;;;;;;;;;;;;;;;4.66;100.00;101471.13;4993070;28;19929;-71
2022/01/19 12:54:30;;;;;;;;;;;;;;;4.59;100.00;101465.25;4993834;28;19925;-71
2022/01/19 12:57:17;;;;;;;;;;;;;;;4.42;100.00;101461.78;4994141;28;20289;-71
2022/01/19 13:00:01;;;;;;;;;;;;;;;4.38;100.00;101452.31;4994099;28;19944;-71
2022/01/19 13:02:44;;;;;;;;;;;;;;;4.61;100.00;101442.28;4979094;28;19972;-72
2022/01/19 13:05:30;;;;;;;;;;;;;;;4.41;100.00;101438.94;4992729;28;19924;-71
2022/01/19 13:08:24;;;;;;;;;;;;;;;4.52;100.00;101447.16;4993713;28;19928;-72
2022/01/19 13:11:18;;;;;;;;;;;;;;;4.34;100.00;101429.59;4979153;28;19924;-71
2022/01/19 13:14:04;;;;;;;;;;;;;;;4.31;100.00;101427.13;4992942;28;20068;-72
2022/01/19 13:16:48;;;;;;;;;;;;;;;4.42;100.00;101435.38;4992836;28;19941;-71
2022/01/19 13:19:32;;;;;;;;;;;;;;;4.36;100.00;101439.16;4992697;28;19941;-71
2022/01/19 13:22:16;;;;;;;;;;;;;;;4.35;100.00;101431.34;4993602;28;19925;-71
2022/01/19 13:25:01;;;;;;;;;;;;;;;4.40;100.00;101437.25;4992584;28;20020;-72
2022/01/19 13:27:45;;;;;;;;;;;;;;;4.36;100.00;101420.69;4993422;28;20062;-71
2022/01/19 13:30:34;;;;;;;;;;;;;;;4.32;100.00;101418.28;4993571;28;19988;-72
2022/01/19 13:33:18;;;;;;;;;;;;;;;4.35;100.00;101419.00;4992684;28;19925;-72
2022/01/19 13:36:02;;;;;;;;;;;;;;;4.37;100.00;101421.56;4993716;28;20012;-71
2022/01/19 13:38:53;;;;;;;;;;;;;;;4.36;100.00;101420.69;4992325;28;19968;-72
2022/01/19 13:41:41;;;;;;;;;;;;;;;4.28;100.00;101424.66;4993632;28;20048;-72
2022/01/19 13:44:30;;;;;;;;;;;;;;;4.22;100.00;101432.88;4978617;28;20009;-72
2022/01/19 13:47:27;;;;;;;;;;;;;;;4.12;100.00;101432.47;4992394;28;20308;-71
2022/01/19 13:50:11;;;;;;;;;;;;;;;4.12;100.00;101426.34;4995908;28;20083;-72
2022/01/19 13:52:55;;;;;;;;;;;;;;;4.14;100.00;101429.75;4996101;28;19968;-71
2022/01/19 13:55:39;;;;;;;;;;;;;;;4.12;100.00;101419.28;4995990;28;19924;-71
2022/01/19 13:58:28;;;;;;;;;;;;;;;4.06;100.00;101424.84;4996618;28;19968;-71
2022/01/19 14:01:15;;;;;;;;;;;;;;;4.17;100.00;101425.19;4982458;28;19924;-71
2022/01/19 14:04:04;;;;;;;;;;;;;;;4.13;100.00;101414.84;4996919;28;20431;-72
2022/01/19 14:06:49;;;;;;;;;;;;;;;4.22;100.00;101417.03;4996995;28;19924;-72
2022/01/19 14:09:36;;;;;;;;;;;;;;;4.24;100.00;101420.44;4995798;28;19933;-71
2022/01/19 14:12:21;;;;;;;;;;;;;;;4.21;100.00;101418.84;4996718;28;19924;-72
2022/01/19 14:15:09;;;;;;;;;;;;;;;4.21;100.00;101407.41;4995895;28;20340;-71
2022/01/19 14:17:53;;;;;;;;;;;;;;;4.24;100.00;101409.88;4996721;28;19931;-72
2022/01/19 14:20:38;;;;;;;;;;;;;;;4.19;100.00;101417.19;4996645;28;19925;-71
2022/01/19 14:23:22;;;;;;;;;;;;;;;4.29;100.00;101414.00;4995924;28;19925;-71
2022/01/19 14:26:06;;;;;;;;;;;;;;;4.19;100.00;101411.91;4981688;28;20024;-71
2022/01/19 14:29:09;;;;;;;;;;;;;;;4.18;100.00;101410.22;4995661;28;20013;-71
2022/01/19 14:31:53;;;;;;;;;;;;;;;4.32;100.00;101403.31;4996498;28;19924;-71
2022/01/19 14:34:41;;;;;;;;;;;;;;;4.26;100.00;101405.41;4996649;28;19925;-72
2022/01/19 14:37:25;;;;;;;;;;;;;;;4.24;100.00;101399.31;4995625;28;19941;-71
2022/01/19 14:40:09;;;;;;;;;;;;;;;4.21;100.00;101394.22;4995433;28;19924;-71
2022/01/19 14:42:53;;;;;;;;;;;;;;;4.25;100.00;101388.69;4995319;28;19945;-71
2022/01/19 14:45:37;;;;;;;;;;;;;;;4.27;100.00;101373.63;4995976;28;19940;-71
2022/01/19 14:48:23;;;;;;;;;;;;;;;4.26;100.00;101373.75;4996382;28;19932;-70
2022/01/19 14:51:16;;;;;;;;;;;;;;;4.26;100.00;101376.38;4996240;28;19983;-71
2022/01/19 14:54:11;;;;;;;;;;;;;;;4.22;100.00;101380.94;4996361;28;19965;-71
2022/01/19 14:56:55;;;;;;;;;;;;;;;4.29;100.00;101373.56;4996264;28;19924;-72
2022/01/19 14:59:40;;;;;;;;;;;;;;;4.29;100.00;101360.38;4994959;28;19925;-71
2022/01/19 15:02:24;;;;;;;;;;;;;;;4.29;100.00;101366.47;4994208;28;19931;-71
2022/01/19 15:05:08;;;;;;;;;;;;;;;4.37;100.00;101371.41;4994995;28;19924;-71
2022/01/19 15:07:52;;;;;;;;;;;;;;;4.33;100.00;101364.56;4980976;28;20053;-71
2022/01/19 15:10:36;;;;;;;;;;;;;;;4.34;100.00;101358.34;4995688;28;20016;-70
2022/01/19 15:13:20;;;;;;;;;;;;;;;4.34;100.00;101353.06;4994628;28;20300;-71
2022/01/19 15:16:06;;;;;;;;;;;;;;;4.35;100.00;101349.50;4994646;28;19928;-71
2022/01/19 15:18:50;;;;;;;;;;;;;;;4.38;100.00;101349.34;4995758;28;19972;-72
2022/01/19 15:21:33;;;;;;;;;;;;;;;4.46;100.00;101344.53;4995803;28;20027;-72
2022/01/19 15:24:17;;;;;;;;;;;;;;;4.51;100.00;101346.00;4994513;28;19940;-71
2022/01/19 15:27:01;;;;;;;;;;;;;;;4.44;100.00;101343.72;4994689;28;20403;-72
2022/01/19 15:29:45;;;;;;;;;;;;;;;4.55;100.00;101349.28;4995511;28;19932;-72
2022/01/19 15:32:29;;;;;;;;;;;;;;;4.48;100.00;101348.78;4980865;28;20033;-72
2022/01/19 15:35:13;;;;;;;;;;;;;;;4.46;100.00;101357.72;4980508;28;19928;-72
2022/01/19 15:37:57;;;;;;;;;;;;;;;4.51;100.00;101350.41;4994419;28;19972;-72
2022/01/19 15:40:41;;;;;;;;;;;;;;;4.64;100.00;101356.75;4995752;28;19924;-72
2022/01/19 15:43:25;;;;;;;;;;;;;;;4.52;100.00;101352.97;4980580;28;20432;-70